This is the latest recevied weather packets stored in our database for station/object N2PPN. If no packets are shown the sender has not sent any weather packets the latest 1 day(s).
| Time | Temp. | Humidity | Pressure | Rain* | Wind** | Luminosity | Snow |
|---|---|---|---|---|---|---|---|
| 1777976967 | 11.67° C | 96% | 1014.1 hPa | 0 mm | 0.89 m/s, 189° | 23 W/m² | - |
| 1777976665 | 11.67° C | 96% | 1014.2 hPa | 0 mm | 0.89 m/s, 143° | 20 W/m² | - |
| 1777976361 | 11.67° C | 96% | 1014 hPa | 0 mm | 0.89 m/s, 178° | 15 W/m² | - |
| 1777976061 | 11.67° C | 96% | 1014.1 hPa | 0 mm | 1.34 m/s, 205° | 13 W/m² | - |
| 1777975756 | 11.67° C | 97% | 1013.9 hPa | 0 mm | 0.89 m/s, 179° | 10 W/m² | - |
| 1777975453 | 11.67° C | 97% | 1013.6 hPa | 0 mm | 1.34 m/s, 219° | 8 W/m² | - |
| 1777975149 | 11.67° C | 97% | 1013.8 hPa | 0 mm | 1.34 m/s, 182° | 5 W/m² | - |
| 1777974846 | 11.11° C | 97% | 1013.6 hPa | 0 mm | 0.89 m/s, 191° | 4 W/m² | - |
| 1777974543 | 11.11° C | 97% | 1013.6 hPa | 0 mm | 0.89 m/s, 184° | 2 W/m² | - |
| 1777974240 | 11.11° C | 97% | 1013.5 hPa | 0 mm | 0.89 m/s, 145° | 1 W/m² | - |
| 1777973935 | 11.11° C | 97% | 1013.9 hPa | 0 mm | 0.45 m/s, 152° | 1 W/m² | - |
| 1777973633 | 11.11° C | 97% | 1013.7 hPa | 0 mm | 0 m/s | 0 W/m² | - |
| 1777973330 | 11.11° C | 97% | 1013.8 hPa | 0 mm | 0 m/s | 0 W/m² | - |
| 1777973028 | 11.67° C | 97% | 1013.6 hPa | 0 mm | 0.45 m/s, 124° | 0 W/m² | - |
| 1777972725 | 11.67° C | 96% | 1013.7 hPa | 0 mm | 0 m/s | 0 W/m² | - |
| 1777972423 | 11.67° C | 96% | 1013.7 hPa | 0 mm | 0 m/s | 0 W/m² | - |
| 1777972121 | 11.67° C | 96% | 1013.7 hPa | 0 mm | 0.45 m/s, 184° | 0 W/m² | - |
| 1777971819 | 11.67° C | 96% | 1014 hPa | 0 mm | 1.34 m/s, 197° | 0 W/m² | - |
| 1777971515 | 11.67° C | 96% | 1013.6 hPa | 0 mm | 1.34 m/s, 173° | 0 W/m² | - |
| 1777971214 | 11.67° C | 96% | 1013.6 hPa | 0 mm | 0.89 m/s, 190° | 0 W/m² | - |
| 1777970911 | 11.67° C | 96% | 1013.7 hPa | 0 mm | 2.24 m/s, 219° | 0 W/m² | - |
| 1777970609 | 11.67° C | 96% | 1013.8 hPa | 0 mm | 0.45 m/s, 141° | 0 W/m² | - |
| 1777970306 | 11.67° C | 96% | 1013.6 hPa | 0 mm | 1.79 m/s, 182° | 0 W/m² | - |
| 1777970004 | 11.67° C | 95% | 1013.6 hPa | 0 mm | 1.79 m/s, 188° | 0 W/m² | - |
| 1777969700 | 11.67° C | 95% | 1013.6 hPa | 0 mm | 1.34 m/s, 214° | 0 W/m² | - |
* Rain latest hour (hover to see other rain measurements)
** Current wind speed in m/s (hover to see current wind gust speed)